sensor_id;sensor_type;location;lat;lon;timestamp;P1;durP1;ratioP1;P2;durP2;ratioP2
74632;SDS011;63139;52.018;8.552;2023-08-21T00:01:35;7.28;;;3.40;;
74632;SDS011;63139;52.018;8.552;2023-08-21T00:04:02;3.53;;;3.10;;
74632;SDS011;63139;52.018;8.552;2023-08-21T00:06:31;5.07;;;3.75;;
74632;SDS011;63139;52.018;8.552;2023-08-21T00:08:59;4.00;;;3.00;;
74632;SDS011;63139;52.018;8.552;2023-08-21T00:11:27;6.40;;;3.15;;
74632;SDS011;63139;52.018;8.552;2023-08-21T00:13:55;6.50;;;4.00;;
74632;SDS011;63139;52.018;8.552;2023-08-21T00:16:24;5.10;;;3.17;;
74632;SDS011;63139;52.018;8.552;2023-08-21T00:18:55;5.95;;;3.88;;
74632;SDS011;63139;52.018;8.552;2023-08-21T00:21:23;7.18;;;3.88;;
74632;SDS011;63139;52.018;8.552;2023-08-21T00:23:51;6.53;;;4.20;;
74632;SDS011;63139;52.018;8.552;2023-08-21T00:26:19;4.57;;;3.15;;
74632;SDS011;63139;52.018;8.552;2023-08-21T00:29:01;3.70;;;2.95;;
74632;SDS011;63139;52.018;8.552;2023-08-21T00:31:30;5.00;;;3.45;;
74632;SDS011;63139;52.018;8.552;2023-08-21T00:33:58;6.28;;;3.72;;
74632;SDS011;63139;52.018;8.552;2023-08-21T00:36:25;5.30;;;3.70;;
74632;SDS011;63139;52.018;8.552;2023-08-21T00:38:54;5.07;;;3.53;;
74632;SDS011;63139;52.018;8.552;2023-08-21T00:41:21;4.93;;;3.33;;
74632;SDS011;63139;52.018;8.552;2023-08-21T00:43:49;4.78;;;3.28;;
74632;SDS011;63139;52.018;8.552;2023-08-21T00:46:17;4.38;;;2.92;;
74632;SDS011;63139;52.018;8.552;2023-08-21T00:48:46;3.83;;;3.25;;
74632;SDS011;63139;52.018;8.552;2023-08-21T00:51:14;9.70;;;4.10;;
74632;SDS011;63139;52.018;8.552;2023-08-21T00:53:43;5.72;;;3.55;;
74632;SDS011;63139;52.018;8.552;2023-08-21T00:56:12;4.25;;;3.38;;
74632;SDS011;63139;52.018;8.552;2023-08-21T00:58:40;5.10;;;3.88;;
74632;SDS011;63139;52.018;8.552;2023-08-21T01:01:09;4.55;;;3.58;;
74632;SDS011;63139;52.018;8.552;2023-08-21T01:03:36;7.45;;;4.13;;
74632;SDS011;63139;52.018;8.552;2023-08-21T01:06:06;6.32;;;3.17;;
74632;SDS011;63139;52.018;8.552;2023-08-21T01:08:35;8.10;;;3.55;;
74632;SDS011;63139;52.018;8.552;2023-08-21T01:11:18;4.45;;;3.45;;
74632;SDS011;63139;52.018;8.552;2023-08-21T01:13:51;3.28;;;2.80;;
74632;SDS011;63139;52.018;8.552;2023-08-21T01:16:26;3.85;;;2.80;;
74632;SDS011;63139;52.018;8.552;2023-08-21T01:18:55;6.75;;;3.40;;
74632;SDS011;63139;52.018;8.552;2023-08-21T01:21:27;5.97;;;3.65;;
74632;SDS011;63139;52.018;8.552;2023-08-21T01:23:56;7.68;;;3.67;;
74632;SDS011;63139;52.018;8.552;2023-08-21T01:26:24;8.50;;;4.28;;
74632;SDS011;63139;52.018;8.552;2023-08-21T01:28:52;6.40;;;4.07;;
74632;SDS011;63139;52.018;8.552;2023-08-21T01:31:21;7.03;;;3.70;;
74632;SDS011;63139;52.018;8.552;2023-08-21T01:33:53;3.70;;;2.95;;
74632;SDS011;63139;52.018;8.552;2023-08-21T01:36:25;2.88;;;2.58;;
74632;SDS011;63139;52.018;8.552;2023-08-21T01:38:53;3.38;;;2.38;;
74632;SDS011;63139;52.018;8.552;2023-08-21T01:41:24;4.68;;;3.22;;
74632;SDS011;63139;52.018;8.552;2023-08-21T01:43:53;5.50;;;3.20;;
74632;SDS011;63139;52.018;8.552;2023-08-21T01:46:20;3.13;;;2.60;;
74632;SDS011;63139;52.018;8.552;2023-08-21T01:48:48;3.40;;;2.60;;
74632;SDS011;63139;52.018;8.552;2023-08-21T01:51:16;6.38;;;3.08;;
74632;SDS011;63139;52.018;8.552;2023-08-21T01:53:44;4.18;;;2.97;;
74632;SDS011;63139;52.018;8.552;2023-08-21T01:56:12;3.65;;;2.40;;
74632;SDS011;63139;52.018;8.552;2023-08-21T01:58:41;3.80;;;2.58;;
74632;SDS011;63139;52.018;8.552;2023-08-21T02:01:08;5.05;;;3.20;;
74632;SDS011;63139;52.018;8.552;2023-08-21T02:03:36;5.32;;;2.92;;
74632;SDS011;63139;52.018;8.552;2023-08-21T02:06:04;6.85;;;2.80;;
74632;SDS011;63139;52.018;8.552;2023-08-21T02:08:32;4.25;;;2.22;;
74632;SDS011;63139;52.018;8.552;2023-08-21T02:11:00;5.75;;;2.10;;
74632;SDS011;63139;52.018;8.552;2023-08-21T02:13:29;3.35;;;1.98;;
74632;SDS011;63139;52.018;8.552;2023-08-21T02:15:58;3.70;;;2.45;;
74632;SDS011;63139;52.018;8.552;2023-08-21T02:18:26;3.20;;;2.00;;
74632;SDS011;63139;52.018;8.552;2023-08-21T02:20:56;2.95;;;2.00;;
74632;SDS011;63139;52.018;8.552;2023-08-21T02:23:24;2.50;;;2.03;;
74632;SDS011;63139;52.018;8.552;2023-08-21T02:25:53;2.75;;;1.88;;
74632;SDS011;63139;52.018;8.552;2023-08-21T02:28:20;2.25;;;1.95;;
74632;SDS011;63139;52.018;8.552;2023-08-21T02:30:49;2.38;;;1.77;;
74632;SDS011;63139;52.018;8.552;2023-08-21T02:33:18;6.47;;;2.25;;
74632;SDS011;63139;52.018;8.552;2023-08-21T02:35:46;5.78;;;2.42;;
74632;SDS011;63139;52.018;8.552;2023-08-21T02:38:14;3.85;;;2.20;;
74632;SDS011;63139;52.018;8.552;2023-08-21T02:40:42;3.60;;;2.10;;
74632;SDS011;63139;52.018;8.552;2023-08-21T02:43:09;2.28;;;1.83;;
74632;SDS011;63139;52.018;8.552;2023-08-21T02:45:37;3.60;;;1.85;;
74632;SDS011;63139;52.018;8.552;2023-08-21T02:48:05;1.70;;;1.50;;
74632;SDS011;63139;52.018;8.552;2023-08-21T02:50:34;1.85;;;1.70;;
74632;SDS011;63139;52.018;8.552;2023-08-21T02:53:02;3.05;;;1.88;;
74632;SDS011;63139;52.018;8.552;2023-08-21T02:55:30;3.13;;;1.60;;
74632;SDS011;63139;52.018;8.552;2023-08-21T02:57:58;4.90;;;2.30;;
74632;SDS011;63139;52.018;8.552;2023-08-21T03:00:26;4.72;;;2.10;;
74632;SDS011;63139;52.018;8.552;2023-08-21T03:02:53;5.00;;;1.90;;
74632;SDS011;63139;52.018;8.552;2023-08-21T03:05:22;4.45;;;1.83;;
74632;SDS011;63139;52.018;8.552;2023-08-21T03:07:51;5.43;;;1.80;;
74632;SDS011;63139;52.018;8.552;2023-08-21T03:10:18;4.75;;;1.95;;
74632;SDS011;63139;52.018;8.552;2023-08-21T03:12:47;3.90;;;2.00;;
74632;SDS011;63139;52.018;8.552;2023-08-21T03:15:14;2.80;;;2.00;;
74632;SDS011;63139;52.018;8.552;2023-08-21T03:17:42;3.38;;;2.20;;
74632;SDS011;63139;52.018;8.552;2023-08-21T03:20:10;3.00;;;2.00;;
74632;SDS011;63139;52.018;8.552;2023-08-21T03:22:38;2.63;;;1.98;;
74632;SDS011;63139;52.018;8.552;2023-08-21T03:25:08;4.70;;;2.40;;
74632;SDS011;63139;52.018;8.552;2023-08-21T03:27:36;2.78;;;1.75;;
74632;SDS011;63139;52.018;8.552;2023-08-21T03:30:06;2.47;;;1.90;;
74632;SDS011;63139;52.018;8.552;2023-08-21T03:32:36;3.78;;;2.00;;
74632;SDS011;63139;52.018;8.552;2023-08-21T03:35:05;3.15;;;1.92;;
74632;SDS011;63139;52.018;8.552;2023-08-21T03:37:34;6.25;;;2.00;;
74632;SDS011;63139;52.018;8.552;2023-08-21T03:40:03;1.85;;;1.67;;
74632;SDS011;63139;52.018;8.552;2023-08-21T03:42:33;1.63;;;1.52;;
74632;SDS011;63139;52.018;8.552;2023-08-21T03:45:02;3.05;;;1.80;;
74632;SDS011;63139;52.018;8.552;2023-08-21T03:47:31;5.47;;;1.90;;
74632;SDS011;63139;52.018;8.552;2023-08-21T03:50:05;7.72;;;2.20;;
74632;SDS011;63139;52.018;8.552;2023-08-21T03:52:33;4.25;;;2.40;;
74632;SDS011;63139;52.018;8.552;2023-08-21T03:55:01;3.17;;;1.98;;
74632;SDS011;63139;52.018;8.552;2023-08-21T03:57:30;4.10;;;1.83;;
74632;SDS011;63139;52.018;8.552;2023-08-21T03:59:59;3.75;;;2.20;;
74632;SDS011;63139;52.018;8.552;2023-08-21T04:02:28;3.88;;;1.98;;
74632;SDS011;63139;52.018;8.552;2023-08-21T04:04:56;3.63;;;2.35;;
74632;SDS011;63139;52.018;8.552;2023-08-21T04:07:24;2.17;;;1.70;;
74632;SDS011;63139;52.018;8.552;2023-08-21T04:09:52;3.67;;;2.10;;
74632;SDS011;63139;52.018;8.552;2023-08-21T04:12:19;3.72;;;2.00;;
74632;SDS011;63139;52.018;8.552;2023-08-21T04:14:47;3.50;;;1.95;;
74632;SDS011;63139;52.018;8.552;2023-08-21T04:17:21;2.28;;;2.08;;
74632;SDS011;63139;52.018;8.552;2023-08-21T04:19:49;5.88;;;2.35;;
74632;SDS011;63139;52.018;8.552;2023-08-21T04:22:16;5.32;;;2.28;;
74632;SDS011;63139;52.018;8.552;2023-08-21T04:24:45;3.35;;;1.90;;
74632;SDS011;63139;52.018;8.552;2023-08-21T04:27:12;3.60;;;1.95;;
74632;SDS011;63139;52.018;8.552;2023-08-21T04:29:40;4.78;;;2.33;;
74632;SDS011;63139;52.018;8.552;2023-08-21T04:32:08;4.78;;;2.20;;
74632;SDS011;63139;52.018;8.552;2023-08-21T04:34:37;4.80;;;2.50;;
74632;SDS011;63139;52.018;8.552;2023-08-21T04:37:05;6.18;;;2.30;;
74632;SDS011;63139;52.018;8.552;2023-08-21T04:39:33;5.63;;;2.13;;
74632;SDS011;63139;52.018;8.552;2023-08-21T04:42:02;3.33;;;2.20;;
74632;SDS011;63139;52.018;8.552;2023-08-21T04:44:30;2.95;;;2.00;;
74632;SDS011;63139;52.018;8.552;2023-08-21T04:47:18;5.50;;;2.30;;
74632;SDS011;63139;52.018;8.552;2023-08-21T04:49:48;3.05;;;2.28;;
74632;SDS011;63139;52.018;8.552;2023-08-21T04:52:17;3.00;;;2.30;;
74632;SDS011;63139;52.018;8.552;2023-08-21T04:54:45;3.30;;;2.03;;
74632;SDS011;63139;52.018;8.552;2023-08-21T04:57:14;2.13;;;1.73;;
74632;SDS011;63139;52.018;8.552;2023-08-21T04:59:42;4.75;;;2.10;;
74632;SDS011;63139;52.018;8.552;2023-08-21T05:02:10;3.90;;;1.90;;
74632;SDS011;63139;52.018;8.552;2023-08-21T05:04:38;2.92;;;2.00;;
74632;SDS011;63139;52.018;8.552;2023-08-21T05:07:09;3.08;;;2.03;;
74632;SDS011;63139;52.018;8.552;2023-08-21T05:09:37;4.45;;;2.17;;
74632;SDS011;63139;52.018;8.552;2023-08-21T05:12:07;3.38;;;2.13;;
74632;SDS011;63139;52.018;8.552;2023-08-21T05:14:35;3.55;;;2.22;;
74632;SDS011;63139;52.018;8.552;2023-08-21T05:17:03;4.88;;;2.00;;
74632;SDS011;63139;52.018;8.552;2023-08-21T05:19:31;3.83;;;2.42;;
74632;SDS011;63139;52.018;8.552;2023-08-21T05:21:59;4.13;;;2.22;;
74632;SDS011;63139;52.018;8.552;2023-08-21T05:24:31;2.53;;;2.00;;
74632;SDS011;63139;52.018;8.552;2023-08-21T05:27:02;7.30;;;2.47;;
74632;SDS011;63139;52.018;8.552;2023-08-21T05:29:31;4.80;;;2.30;;
74632;SDS011;63139;52.018;8.552;2023-08-21T05:31:59;3.53;;;2.40;;
74632;SDS011;63139;52.018;8.552;2023-08-21T05:34:27;6.78;;;2.60;;
74632;SDS011;63139;52.018;8.552;2023-08-21T05:36:55;4.85;;;2.53;;
74632;SDS011;63139;52.018;8.552;2023-08-21T05:39:22;5.25;;;2.30;;
74632;SDS011;63139;52.018;8.552;2023-08-21T05:41:52;11.05;;;2.47;;
74632;SDS011;63139;52.018;8.552;2023-08-21T05:44:20;4.88;;;2.60;;
74632;SDS011;63139;52.018;8.552;2023-08-21T05:46:48;5.85;;;2.45;;
74632;SDS011;63139;52.018;8.552;2023-08-21T05:49:16;6.78;;;2.33;;
74632;SDS011;63139;52.018;8.552;2023-08-21T05:51:44;8.98;;;2.83;;
74632;SDS011;63139;52.018;8.552;2023-08-21T05:54:11;7.68;;;2.22;;
74632;SDS011;63139;52.018;8.552;2023-08-21T05:56:40;5.00;;;2.00;;
74632;SDS011;63139;52.018;8.552;2023-08-21T05:59:10;5.63;;;2.33;;
74632;SDS011;63139;52.018;8.552;2023-08-21T06:01:39;6.07;;;2.17;;
74632;SDS011;63139;52.018;8.552;2023-08-21T06:04:06;2.92;;;2.05;;
74632;SDS011;63139;52.018;8.552;2023-08-21T06:06:39;5.70;;;2.50;;
74632;SDS011;63139;52.018;8.552;2023-08-21T06:09:08;5.32;;;2.42;;
74632;SDS011;63139;52.018;8.552;2023-08-21T06:11:37;2.80;;;2.00;;
74632;SDS011;63139;52.018;8.552;2023-08-21T06:14:05;4.03;;;2.25;;
74632;SDS011;63139;52.018;8.552;2023-08-21T06:16:34;6.45;;;1.90;;
74632;SDS011;63139;52.018;8.552;2023-08-21T06:19:02;2.80;;;1.90;;
74632;SDS011;63139;52.018;8.552;2023-08-21T06:21:30;5.30;;;2.33;;
74632;SDS011;63139;52.018;8.552;2023-08-21T06:23:58;5.25;;;2.20;;
74632;SDS011;63139;52.018;8.552;2023-08-21T06:26:26;6.25;;;2.38;;
74632;SDS011;63139;52.018;8.552;2023-08-21T06:28:54;3.42;;;1.90;;
74632;SDS011;63139;52.018;8.552;2023-08-21T06:31:21;4.38;;;1.90;;
74632;SDS011;63139;52.018;8.552;2023-08-21T06:33:50;2.95;;;1.80;;
74632;SDS011;63139;52.018;8.552;2023-08-21T06:36:18;4.65;;;1.88;;
74632;SDS011;63139;52.018;8.552;2023-08-21T06:38:46;7.22;;;2.28;;
74632;SDS011;63139;52.018;8.552;2023-08-21T06:41:13;4.20;;;1.90;;
74632;SDS011;63139;52.018;8.552;2023-08-21T06:43:41;6.05;;;2.13;;
74632;SDS011;63139;52.018;8.552;2023-08-21T06:46:13;3.72;;;2.13;;
74632;SDS011;63139;52.018;8.552;2023-08-21T06:48:41;4.95;;;2.17;;
74632;SDS011;63139;52.018;8.552;2023-08-21T06:51:11;5.55;;;2.28;;
74632;SDS011;63139;52.018;8.552;2023-08-21T06:53:42;5.90;;;2.45;;
74632;SDS011;63139;52.018;8.552;2023-08-21T06:56:10;6.07;;;2.28;;
74632;SDS011;63139;52.018;8.552;2023-08-21T06:58:38;6.15;;;1.85;;
74632;SDS011;63139;52.018;8.552;2023-08-21T07:01:06;4.38;;;2.03;;
74632;SDS011;63139;52.018;8.552;2023-08-21T07:03:33;4.45;;;2.00;;
74632;SDS011;63139;52.018;8.552;2023-08-21T07:06:01;5.10;;;1.73;;
74632;SDS011;63139;52.018;8.552;2023-08-21T07:08:30;5.80;;;1.73;;
74632;SDS011;63139;52.018;8.552;2023-08-21T07:10:58;5.65;;;1.60;;
74632;SDS011;63139;52.018;8.552;2023-08-21T07:13:30;3.50;;;1.80;;
74632;SDS011;63139;52.018;8.552;2023-08-21T07:15:57;3.58;;;1.80;;
74632;SDS011;63139;52.018;8.552;2023-08-21T07:18:28;4.18;;;1.60;;
74632;SDS011;63139;52.018;8.552;2023-08-21T07:20:57;2.30;;;1.40;;
74632;SDS011;63139;52.018;8.552;2023-08-21T07:23:25;3.67;;;1.63;;
74632;SDS011;63139;52.018;8.552;2023-08-21T07:25:54;5.95;;;1.70;;
74632;SDS011;63139;52.018;8.552;2023-08-21T07:28:22;2.63;;;1.38;;
74632;SDS011;63139;52.018;8.552;2023-08-21T07:30:54;5.88;;;1.92;;
74632;SDS011;63139;52.018;8.552;2023-08-21T07:33:23;3.55;;;1.48;;
74632;SDS011;63139;52.018;8.552;2023-08-21T07:35:58;3.67;;;1.45;;
74632;SDS011;63139;52.018;8.552;2023-08-21T07:38:27;2.97;;;1.45;;
74632;SDS011;63139;52.018;8.552;2023-08-21T07:41:06;2.83;;;1.50;;
74632;SDS011;63139;52.018;8.552;2023-08-21T07:43:36;4.60;;;1.65;;
74632;SDS011;63139;52.018;8.552;2023-08-21T07:46:04;4.85;;;1.58;;
74632;SDS011;63139;52.018;8.552;2023-08-21T07:48:34;3.92;;;1.65;;
74632;SDS011;63139;52.018;8.552;2023-08-21T07:51:02;4.07;;;1.48;;
74632;SDS011;63139;52.018;8.552;2023-08-21T07:53:30;5.28;;;1.65;;
74632;SDS011;63139;52.018;8.552;2023-08-21T07:55:58;2.63;;;1.60;;
74632;SDS011;63139;52.018;8.552;2023-08-21T07:58:27;4.18;;;1.55;;
74632;SDS011;63139;52.018;8.552;2023-08-21T08:00:55;4.07;;;1.48;;
74632;SDS011;63139;52.018;8.552;2023-08-21T08:03:23;2.83;;;1.25;;
74632;SDS011;63139;52.018;8.552;2023-08-21T08:05:51;4.03;;;1.30;;
74632;SDS011;63139;52.018;8.552;2023-08-21T08:08:21;4.45;;;1.30;;
74632;SDS011;63139;52.018;8.552;2023-08-21T08:10:50;4.57;;;1.48;;
74632;SDS011;63139;52.018;8.552;2023-08-21T08:13:17;3.58;;;1.35;;
74632;SDS011;63139;52.018;8.552;2023-08-21T08:15:46;4.45;;;1.58;;
74632;SDS011;63139;52.018;8.552;2023-08-21T08:18:15;3.83;;;1.50;;
74632;SDS011;63139;52.018;8.552;2023-08-21T08:20:42;4.50;;;1.55;;
74632;SDS011;63139;52.018;8.552;2023-08-21T08:23:10;4.05;;;1.50;;
74632;SDS011;63139;52.018;8.552;2023-08-21T08:25:38;4.35;;;1.55;;
74632;SDS011;63139;52.018;8.552;2023-08-21T08:28:06;5.63;;;1.63;;
74632;SDS011;63139;52.018;8.552;2023-08-21T08:30:34;5.13;;;1.75;;
74632;SDS011;63139;52.018;8.552;2023-08-21T08:33:03;5.45;;;1.38;;
74632;SDS011;63139;52.018;8.552;2023-08-21T08:35:31;3.83;;;1.58;;
74632;SDS011;63139;52.018;8.552;2023-08-21T08:38:00;3.92;;;1.63;;
74632;SDS011;63139;52.018;8.552;2023-08-21T08:40:28;7.07;;;1.60;;
74632;SDS011;63139;52.018;8.552;2023-08-21T08:42:56;2.67;;;1.50;;
74632;SDS011;63139;52.018;8.552;2023-08-21T08:45:27;3.13;;;1.30;;
74632;SDS011;63139;52.018;8.552;2023-08-21T08:47:57;4.32;;;1.67;;
74632;SDS011;63139;52.018;8.552;2023-08-21T08:50:30;2.92;;;1.45;;
74632;SDS011;63139;52.018;8.552;2023-08-21T08:52:59;7.85;;;1.70;;
74632;SDS011;63139;52.018;8.552;2023-08-21T08:55:41;4.10;;;1.65;;
74632;SDS011;63139;52.018;8.552;2023-08-21T08:58:09;5.68;;;1.60;;
74632;SDS011;63139;52.018;8.552;2023-08-21T09:00:37;4.53;;;1.30;;
74632;SDS011;63139;52.018;8.552;2023-08-21T09:03:06;7.13;;;1.95;;
74632;SDS011;63139;52.018;8.552;2023-08-21T09:05:36;4.00;;;1.50;;
74632;SDS011;63139;52.018;8.552;2023-08-21T09:08:09;3.70;;;1.55;;
74632;SDS011;63139;52.018;8.552;2023-08-21T09:10:39;5.20;;;1.65;;
74632;SDS011;63139;52.018;8.552;2023-08-21T09:13:13;4.45;;;1.60;;
74632;SDS011;63139;52.018;8.552;2023-08-21T09:15:43;4.30;;;1.80;;
74632;SDS011;63139;52.018;8.552;2023-08-21T09:18:13;5.32;;;1.80;;
74632;SDS011;63139;52.018;8.552;2023-08-21T09:20:43;2.88;;;1.30;;
74632;SDS011;63139;52.018;8.552;2023-08-21T09:23:13;3.53;;;1.60;;
74632;SDS011;63139;52.018;8.552;2023-08-21T09:25:42;2.88;;;1.38;;
74632;SDS011;63139;52.018;8.552;2023-08-21T09:28:13;5.05;;;1.70;;
74632;SDS011;63139;52.018;8.552;2023-08-21T09:30:45;5.03;;;1.27;;
74632;SDS011;63139;52.018;8.552;2023-08-21T09:33:16;4.60;;;1.48;;
74632;SDS011;63139;52.018;8.552;2023-08-21T09:35:46;4.68;;;1.52;;
74632;SDS011;63139;52.018;8.552;2023-08-21T09:38:14;4.00;;;1.42;;
74632;SDS011;63139;52.018;8.552;2023-08-21T09:40:43;5.88;;;2.00;;
74632;SDS011;63139;52.018;8.552;2023-08-21T09:43:16;8.07;;;2.00;;
74632;SDS011;63139;52.018;8.552;2023-08-21T09:45:45;3.08;;;1.50;;
74632;SDS011;63139;52.018;8.552;2023-08-21T09:48:14;6.35;;;1.60;;
74632;SDS011;63139;52.018;8.552;2023-08-21T09:50:42;3.88;;;1.50;;
74632;SDS011;63139;52.018;8.552;2023-08-21T09:53:14;4.53;;;1.80;;
74632;SDS011;63139;52.018;8.552;2023-08-21T09:55:42;4.05;;;1.23;;
74632;SDS011;63139;52.018;8.552;2023-08-21T09:58:11;4.38;;;1.38;;
74632;SDS011;63139;52.018;8.552;2023-08-21T10:00:40;5.88;;;1.65;;
74632;SDS011;63139;52.018;8.552;2023-08-21T10:03:09;4.07;;;1.58;;
74632;SDS011;63139;52.018;8.552;2023-08-21T10:05:38;3.38;;;1.50;;
74632;SDS011;63139;52.018;8.552;2023-08-21T10:08:07;3.15;;;1.30;;
74632;SDS011;63139;52.018;8.552;2023-08-21T10:10:37;4.35;;;1.60;;
74632;SDS011;63139;52.018;8.552;2023-08-21T10:13:06;4.72;;;1.50;;
74632;SDS011;63139;52.018;8.552;2023-08-21T10:15:35;4.80;;;1.60;;
74632;SDS011;63139;52.018;8.552;2023-08-21T10:18:20;8.20;;;2.13;;
74632;SDS011;63139;52.018;8.552;2023-08-21T10:23:26;2.40;;;1.13;;
74632;SDS011;63139;52.018;8.552;2023-08-21T10:25:57;5.47;;;1.70;;
74632;SDS011;63139;52.018;8.552;2023-08-21T10:28:40;7.22;;;1.90;;
74632;SDS011;63139;52.018;8.552;2023-08-21T10:31:24;5.45;;;1.80;;
74632;SDS011;63139;52.018;8.552;2023-08-21T10:33:53;4.35;;;1.33;;
74632;SDS011;63139;52.018;8.552;2023-08-21T10:39:21;4.53;;;1.55;;
74632;SDS011;63139;52.018;8.552;2023-08-21T10:41:55;4.03;;;1.23;;
74632;SDS011;63139;52.018;8.552;2023-08-21T10:44:33;3.42;;;1.52;;
74632;SDS011;63139;52.018;8.552;2023-08-21T10:47:15;6.18;;;1.95;;
74632;SDS011;63139;52.018;8.552;2023-08-21T10:49:44;5.40;;;1.75;;
74632;SDS011;63139;52.018;8.552;2023-08-21T10:52:13;3.65;;;1.45;;
74632;SDS011;63139;52.018;8.552;2023-08-21T10:54:45;4.40;;;1.48;;
74632;SDS011;63139;52.018;8.552;2023-08-21T10:57:16;6.80;;;1.92;;
74632;SDS011;63139;52.018;8.552;2023-08-21T10:59:53;3.10;;;1.23;;
74632;SDS011;63139;52.018;8.552;2023-08-21T11:02:23;4.63;;;1.60;;
74632;SDS011;63139;52.018;8.552;2023-08-21T11:04:52;3.10;;;1.52;;
74632;SDS011;63139;52.018;8.552;2023-08-21T11:07:20;3.15;;;1.20;;
74632;SDS011;63139;52.018;8.552;2023-08-21T11:09:48;3.38;;;1.40;;
74632;SDS011;63139;52.018;8.552;2023-08-21T11:12:18;3.58;;;1.60;;
74632;SDS011;63139;52.018;8.552;2023-08-21T11:14:47;2.92;;;1.50;;
74632;SDS011;63139;52.018;8.552;2023-08-21T11:17:15;1.92;;;1.35;;
74632;SDS011;63139;52.018;8.552;2023-08-21T11:19:44;2.80;;;1.35;;
74632;SDS011;63139;52.018;8.552;2023-08-21T11:22:14;3.53;;;1.30;;
74632;SDS011;63139;52.018;8.552;2023-08-21T11:24:43;4.93;;;1.63;;
74632;SDS011;63139;52.018;8.552;2023-08-21T11:27:12;4.00;;;1.60;;
74632;SDS011;63139;52.018;8.552;2023-08-21T11:29:44;3.80;;;1.35;;
74632;SDS011;63139;52.018;8.552;2023-08-21T11:32:13;4.40;;;1.33;;
74632;SDS011;63139;52.018;8.552;2023-08-21T11:34:43;3.78;;;1.33;;
74632;SDS011;63139;52.018;8.552;2023-08-21T11:37:16;2.78;;;1.48;;
74632;SDS011;63139;52.018;8.552;2023-08-21T11:39:45;5.97;;;1.63;;
74632;SDS011;63139;52.018;8.552;2023-08-21T11:42:14;5.35;;;1.38;;
74632;SDS011;63139;52.018;8.552;2023-08-21T11:44:46;5.97;;;1.40;;
74632;SDS011;63139;52.018;8.552;2023-08-21T11:47:15;6.30;;;1.30;;
74632;SDS011;63139;52.018;8.552;2023-08-21T11:49:44;7.43;;;1.60;;
74632;SDS011;63139;52.018;8.552;2023-08-21T11:52:17;4.40;;;1.38;;
74632;SDS011;63139;52.018;8.552;2023-08-21T11:54:47;3.40;;;1.42;;
74632;SDS011;63139;52.018;8.552;2023-08-21T11:57:16;3.60;;;1.45;;
74632;SDS011;63139;52.018;8.552;2023-08-21T11:59:50;3.97;;;1.45;;
74632;SDS011;63139;52.018;8.552;2023-08-21T12:02:21;4.10;;;1.58;;
74632;SDS011;63139;52.018;8.552;2023-08-21T12:04:54;4.80;;;1.80;;
74632;SDS011;63139;52.018;8.552;2023-08-21T12:07:28;5.53;;;1.63;;
74632;SDS011;63139;52.018;8.552;2023-08-21T12:09:56;3.95;;;1.85;;
74632;SDS011;63139;52.018;8.552;2023-08-21T12:12:24;5.10;;;1.52;;
74632;SDS011;63139;52.018;8.552;2023-08-21T12:14:53;3.88;;;1.50;;
74632;SDS011;63139;52.018;8.552;2023-08-21T12:17:21;3.47;;;1.50;;
74632;SDS011;63139;52.018;8.552;2023-08-21T12:19:48;5.10;;;1.50;;
74632;SDS011;63139;52.018;8.552;2023-08-21T12:22:16;2.50;;;1.33;;
74632;SDS011;63139;52.018;8.552;2023-08-21T12:24:44;3.75;;;1.10;;
74632;SDS011;63139;52.018;8.552;2023-08-21T12:27:11;5.78;;;1.40;;
74632;SDS011;63139;52.018;8.552;2023-08-21T12:29:39;4.22;;;1.60;;
74632;SDS011;63139;52.018;8.552;2023-08-21T12:32:08;4.03;;;1.42;;
74632;SDS011;63139;52.018;8.552;2023-08-21T12:34:36;4.32;;;1.58;;
74632;SDS011;63139;52.018;8.552;2023-08-21T12:37:04;3.72;;;1.58;;
74632;SDS011;63139;52.018;8.552;2023-08-21T12:39:31;3.97;;;1.55;;
74632;SDS011;63139;52.018;8.552;2023-08-21T12:41:59;4.65;;;1.50;;
74632;SDS011;63139;52.018;8.552;2023-08-21T12:44:27;3.85;;;1.52;;
74632;SDS011;63139;52.018;8.552;2023-08-21T12:46:55;3.38;;;1.30;;
74632;SDS011;63139;52.018;8.552;2023-08-21T12:49:24;4.95;;;1.60;;
74632;SDS011;63139;52.018;8.552;2023-08-21T12:51:52;2.45;;;1.20;;
74632;SDS011;63139;52.018;8.552;2023-08-21T12:54:19;2.92;;;1.40;;
74632;SDS011;63139;52.018;8.552;2023-08-21T12:56:47;4.85;;;1.60;;
74632;SDS011;63139;52.018;8.552;2023-08-21T12:59:15;3.92;;;1.58;;
74632;SDS011;63139;52.018;8.552;2023-08-21T13:01:45;4.03;;;1.70;;
74632;SDS011;63139;52.018;8.552;2023-08-21T13:04:13;3.53;;;1.38;;
74632;SDS011;63139;52.018;8.552;2023-08-21T13:06:42;3.45;;;1.40;;
74632;SDS011;63139;52.018;8.552;2023-08-21T13:09:10;3.38;;;1.52;;
74632;SDS011;63139;52.018;8.552;2023-08-21T13:11:38;4.90;;;1.77;;
74632;SDS011;63139;52.018;8.552;2023-08-21T13:14:06;5.10;;;1.50;;
74632;SDS011;63139;52.018;8.552;2023-08-21T13:16:33;5.00;;;1.63;;
74632;SDS011;63139;52.018;8.552;2023-08-21T13:19:01;3.85;;;1.30;;
74632;SDS011;63139;52.018;8.552;2023-08-21T13:21:29;4.05;;;1.67;;
74632;SDS011;63139;52.018;8.552;2023-08-21T13:23:58;3.70;;;1.70;;
74632;SDS011;63139;52.018;8.552;2023-08-21T13:26:29;3.08;;;1.48;;
74632;SDS011;63139;52.018;8.552;2023-08-21T13:28:58;3.22;;;1.70;;
74632;SDS011;63139;52.018;8.552;2023-08-21T13:31:25;4.70;;;1.70;;
74632;SDS011;63139;52.018;8.552;2023-08-21T13:33:53;4.53;;;1.80;;
74632;SDS011;63139;52.018;8.552;2023-08-21T13:36:21;3.40;;;1.40;;
74632;SDS011;63139;52.018;8.552;2023-08-21T13:38:51;3.38;;;1.63;;
74632;SDS011;63139;52.018;8.552;2023-08-21T13:41:20;5.03;;;1.88;;
74632;SDS011;63139;52.018;8.552;2023-08-21T13:43:48;3.03;;;1.63;;
74632;SDS011;63139;52.018;8.552;2023-08-21T13:46:16;4.22;;;1.60;;
74632;SDS011;63139;52.018;8.552;2023-08-21T13:48:44;3.10;;;1.58;;
74632;SDS011;63139;52.018;8.552;2023-08-21T13:51:12;5.18;;;1.70;;
74632;SDS011;63139;52.018;8.552;2023-08-21T13:53:39;3.55;;;1.70;;
74632;SDS011;63139;52.018;8.552;2023-08-21T13:56:07;4.70;;;1.50;;
74632;SDS011;63139;52.018;8.552;2023-08-21T13:58:36;3.47;;;1.35;;
74632;SDS011;63139;52.018;8.552;2023-08-21T14:01:04;4.15;;;1.42;;
74632;SDS011;63139;52.018;8.552;2023-08-21T14:03:33;3.47;;;1.30;;
74632;SDS011;63139;52.018;8.552;2023-08-21T14:06:01;3.58;;;1.50;;
74632;SDS011;63139;52.018;8.552;2023-08-21T14:08:29;5.25;;;1.50;;
74632;SDS011;63139;52.018;8.552;2023-08-21T14:10:57;2.55;;;1.45;;
74632;SDS011;63139;52.018;8.552;2023-08-21T14:13:25;5.35;;;1.85;;
74632;SDS011;63139;52.018;8.552;2023-08-21T14:15:54;4.32;;;1.65;;
74632;SDS011;63139;52.018;8.552;2023-08-21T14:18:22;2.78;;;1.30;;
74632;SDS011;63139;52.018;8.552;2023-08-21T14:20:50;4.30;;;1.30;;
74632;SDS011;63139;52.018;8.552;2023-08-21T14:23:19;4.28;;;1.60;;
74632;SDS011;63139;52.018;8.552;2023-08-21T14:25:47;3.10;;;1.40;;
74632;SDS011;63139;52.018;8.552;2023-08-21T14:28:15;4.40;;;1.33;;
74632;SDS011;63139;52.018;8.552;2023-08-21T14:30:42;4.40;;;1.85;;
74632;SDS011;63139;52.018;8.552;2023-08-21T14:33:12;2.22;;;1.15;;
74632;SDS011;63139;52.018;8.552;2023-08-21T14:35:40;1.58;;;1.13;;
74632;SDS011;63139;52.018;8.552;2023-08-21T14:38:08;3.35;;;1.55;;
74632;SDS011;63139;52.018;8.552;2023-08-21T14:40:39;2.75;;;1.50;;
74632;SDS011;63139;52.018;8.552;2023-08-21T14:43:07;4.38;;;1.50;;
74632;SDS011;63139;52.018;8.552;2023-08-21T14:45:35;3.97;;;1.55;;
74632;SDS011;63139;52.018;8.552;2023-08-21T14:48:03;1.55;;;1.10;;
74632;SDS011;63139;52.018;8.552;2023-08-21T14:50:33;4.80;;;1.45;;
74632;SDS011;63139;52.018;8.552;2023-08-21T14:53:00;6.78;;;1.50;;
74632;SDS011;63139;52.018;8.552;2023-08-21T14:55:29;3.42;;;1.38;;
74632;SDS011;63139;52.018;8.552;2023-08-21T14:57:56;2.35;;;1.20;;
74632;SDS011;63139;52.018;8.552;2023-08-21T15:00:24;4.72;;;1.38;;
74632;SDS011;63139;52.018;8.552;2023-08-21T15:02:52;2.60;;;1.30;;
74632;SDS011;63139;52.018;8.552;2023-08-21T15:05:20;4.03;;;1.20;;